createdAt,value
2023-04-04T00:00:39.994Z,6.16
2023-04-04T00:03:08.432Z,6.18
2023-04-04T00:05:36.623Z,6.23
2023-04-04T00:08:04.808Z,6.20
2023-04-04T00:10:34.597Z,6.28
2023-04-04T00:13:03.258Z,6.21
2023-04-04T00:15:31.611Z,6.06
2023-04-04T00:17:59.612Z,6.08
2023-04-04T00:20:27.763Z,6.10
2023-04-04T00:22:55.838Z,5.90
2023-04-04T00:25:23.939Z,6.04
2023-04-04T00:27:53.372Z,6.02
2023-04-04T00:30:21.445Z,5.74
2023-04-04T00:32:49.509Z,6.07
2023-04-04T00:35:17.643Z,6.03
2023-04-04T00:37:45.657Z,5.93
2023-04-04T00:40:14.105Z,5.88
2023-04-04T00:42:42.206Z,5.94
2023-04-04T00:45:12.679Z,5.63
2023-04-04T00:47:44.383Z,5.86
2023-04-04T00:50:12.760Z,5.92
2023-04-04T00:52:41.135Z,5.77
2023-04-04T00:55:10.328Z,5.74
2023-04-04T00:57:38.435Z,5.64
2023-04-04T01:00:07.890Z,5.52
2023-04-04T01:02:37.874Z,5.59
2023-04-04T01:05:06.447Z,5.56
2023-04-04T01:07:37.110Z,5.45
2023-04-04T01:10:05.901Z,5.52
2023-04-04T01:12:34.020Z,5.51
2023-04-04T01:15:02.209Z,5.32
2023-04-04T01:17:31.233Z,5.26
2023-04-04T01:20:07.332Z,5.34
2023-04-04T01:22:37.498Z,5.26
2023-04-04T01:25:08.344Z,5.27
2023-04-04T01:27:38.410Z,5.18
2023-04-04T01:30:08.733Z,5.06
2023-04-04T01:32:43.898Z,5.04
2023-04-04T01:35:23.524Z,5.07
2023-04-04T01:37:59.742Z,4.91
2023-04-04T01:40:35.208Z,4.86
2023-04-04T01:43:05.370Z,4.86
2023-04-04T01:45:33.940Z,4.85
2023-04-04T01:48:02.316Z,4.90
2023-04-04T01:50:30.676Z,4.95
2023-04-04T01:52:59.110Z,4.90
2023-04-04T01:55:28.152Z,4.88
2023-04-04T01:57:56.351Z,4.81
2023-04-04T02:00:25.970Z,4.82
2023-04-04T02:02:54.744Z,4.79
2023-04-04T02:05:22.990Z,4.84
2023-04-04T02:07:51.655Z,4.72
2023-04-04T02:10:20.212Z,4.87
2023-04-04T02:12:48.326Z,4.66
2023-04-04T02:15:17.845Z,4.72
2023-04-04T02:17:50.265Z,4.62
2023-04-04T02:20:19.686Z,4.65
2023-04-04T02:22:54.662Z,4.77
2023-04-04T02:25:23.811Z,4.72
2023-04-04T02:27:52.546Z,4.68
2023-04-04T02:30:20.783Z,4.63
2023-04-04T02:32:50.836Z,4.42
2023-04-04T02:35:19.072Z,4.62
2023-04-04T02:37:48.364Z,4.53
2023-04-04T02:40:16.851Z,4.41
2023-04-04T02:42:45.707Z,4.53
2023-04-04T02:45:14.970Z,4.52
2023-04-04T02:47:43.932Z,4.47
2023-04-04T02:50:13.545Z,4.57
2023-04-04T02:52:41.885Z,3.98
2023-04-04T02:55:10.800Z,4.36
2023-04-04T02:57:39.042Z,4.40
2023-04-04T03:00:08.488Z,4.30
2023-04-04T03:02:36.971Z,4.28
2023-04-04T03:05:05.348Z,4.34
2023-04-04T03:07:34.948Z,4.36
2023-04-04T03:10:02.982Z,4.32
2023-04-04T03:12:31.069Z,3.97
2023-04-04T03:14:59.072Z,4.23
2023-04-04T03:17:27.658Z,3.61
2023-04-04T03:19:55.885Z,3.91
2023-04-04T03:22:24.008Z,3.88
2023-04-04T03:24:53.837Z,3.81
2023-04-04T03:27:22.282Z,3.90
2023-04-04T03:29:50.678Z,3.74
2023-04-04T03:32:20.124Z,3.82
2023-04-04T03:34:48.148Z,3.82
2023-04-04T03:37:16.240Z,3.87
2023-04-04T03:39:44.832Z,3.64
2023-04-04T03:42:14.483Z,3.79
2023-04-04T03:44:42.900Z,3.59
2023-04-04T03:47:11.275Z,3.57
2023-04-04T03:49:39.232Z,3.61
2023-04-04T03:52:07.299Z,3.57
2023-04-04T03:54:35.879Z,3.53
2023-04-04T03:57:04.341Z,3.58
2023-04-04T03:59:34.208Z,3.60
2023-04-04T04:02:02.348Z,3.61
2023-04-04T04:04:30.722Z,3.60
2023-04-04T04:06:58.885Z,3.47
2023-04-04T04:09:27.339Z,3.51
2023-04-04T04:11:55.566Z,3.63
2023-04-04T04:14:23.589Z,3.47
2023-04-04T04:16:53.126Z,3.56
2023-04-04T04:19:21.355Z,3.55
2023-04-04T04:21:49.675Z,3.59
2023-04-04T04:24:17.708Z,3.56
2023-04-04T04:26:45.632Z,3.61
2023-04-04T04:29:13.594Z,3.54
2023-04-04T04:31:41.900Z,3.58
2023-04-04T04:34:11.377Z,3.66
2023-04-04T04:36:39.383Z,3.67
2023-04-04T04:39:07.350Z,3.65
2023-04-04T04:41:35.529Z,3.66
2023-04-04T04:44:03.664Z,3.00
2023-04-04T04:46:31.879Z,3.41
2023-04-04T04:49:00.119Z,3.48
2023-04-04T04:51:30.123Z,3.45
2023-04-04T04:53:58.217Z,3.50
2023-04-04T04:56:26.368Z,3.43
2023-04-04T04:58:54.590Z,3.37
2023-04-04T05:01:22.836Z,3.19
2023-04-04T05:03:53.380Z,3.53
2023-04-04T05:06:21.654Z,3.49
2023-04-04T05:08:52.830Z,3.50
2023-04-04T05:11:21.738Z,3.33
2023-04-04T05:13:50.114Z,3.48
2023-04-04T05:16:18.139Z,3.42
2023-04-04T05:18:46.525Z,3.14
2023-04-04T05:21:14.736Z,3.29
2023-04-04T05:23:44.633Z,3.38
2023-04-04T05:26:13.947Z,3.39
2023-04-04T05:28:42.486Z,3.44
2023-04-04T05:31:10.491Z,3.42
2023-04-04T05:33:38.487Z,3.24
2023-04-04T05:36:06.992Z,3.27
2023-04-04T05:38:34.985Z,3.10
2023-04-04T05:41:03.039Z,3.07
2023-04-04T05:43:32.595Z,3.11
2023-04-04T05:46:00.639Z,3.07
2023-04-04T05:48:28.630Z,2.64
2023-04-04T05:50:56.625Z,3.05
2023-04-04T05:53:24.915Z,3.20
2023-04-04T05:55:54.246Z,3.11
2023-04-04T05:58:22.444Z,3.18
2023-04-04T06:00:51.806Z,3.19
2023-04-04T06:03:21.853Z,3.15
2023-04-04T06:05:53.672Z,3.12
2023-04-04T06:08:21.766Z,3.08
2023-04-04T06:10:49.822Z,3.11
2023-04-04T06:13:18.058Z,2.96
2023-04-04T06:15:46.291Z,2.94
2023-04-04T06:18:16.957Z,2.93
2023-04-04T06:20:44.975Z,2.84
2023-04-04T06:23:13.058Z,3.03
2023-04-04T06:25:41.664Z,3.03
2023-04-04T06:28:11.151Z,2.96
2023-04-04T06:30:39.736Z,2.90
2023-04-04T06:33:08.180Z,2.81
2023-04-04T06:35:38.093Z,2.97
2023-04-04T06:38:06.437Z,2.97
2023-04-04T06:40:34.486Z,3.01
2023-04-04T06:43:02.770Z,2.89
2023-04-04T06:45:33.567Z,2.92
2023-04-04T06:48:01.738Z,3.07
2023-04-04T06:50:32.837Z,3.08
2023-04-04T06:53:03.646Z,3.21
2023-04-04T06:55:31.934Z,3.17
2023-04-04T06:58:00.105Z,3.03
2023-04-04T07:00:28.655Z,2.97
2023-04-04T07:03:00.194Z,2.94
2023-04-04T07:05:28.570Z,3.00
2023-04-04T07:07:57.782Z,3.11
2023-04-04T07:10:27.776Z,3.04
2023-04-04T07:12:56.998Z,3.00
2023-04-04T07:15:25.364Z,2.98
2023-04-04T07:17:54.755Z,2.95
2023-04-04T07:20:22.875Z,2.90
2023-04-04T07:22:51.054Z,3.03
2023-04-04T07:25:19.148Z,3.17
2023-04-04T07:30:17.495Z,2.91
2023-04-04T07:32:46.119Z,3.07
2023-04-04T07:35:14.846Z,2.97
2023-04-04T07:37:43.097Z,3.01
2023-04-04T07:40:12.289Z,3.07
2023-04-04T07:42:45.336Z,3.05
2023-04-04T07:45:15.782Z,2.91
2023-04-04T07:47:45.578Z,2.89
2023-04-04T07:50:14.244Z,2.86
2023-04-04T07:52:42.674Z,2.63
2023-04-04T07:55:11.244Z,2.90
2023-04-04T07:57:40.325Z,2.87
2023-04-04T08:00:10.940Z,2.80
2023-04-04T08:02:41.005Z,2.89
2023-04-04T08:05:10.603Z,2.98
2023-04-04T08:07:38.832Z,2.92
2023-04-04T08:10:08.627Z,2.85
2023-04-04T08:12:37.087Z,2.89
2023-04-04T08:15:05.410Z,2.97
2023-04-04T08:17:33.489Z,2.91
2023-04-04T08:20:04.187Z,2.87
2023-04-04T08:22:33.103Z,2.90
2023-04-04T08:25:01.167Z,2.82
2023-04-04T08:27:29.179Z,2.84
2023-04-04T08:29:57.343Z,2.78
2023-04-04T08:32:25.318Z,2.92
2023-04-04T08:34:53.347Z,2.80
2023-04-04T08:37:22.980Z,2.81
2023-04-04T08:39:51.393Z,2.88
2023-04-04T08:42:21.803Z,2.99
2023-04-04T08:44:54.431Z,2.95
2023-04-04T08:47:25.350Z,2.95
2023-04-04T08:49:54.799Z,3.08
2023-04-04T08:52:26.586Z,3.02
2023-04-04T08:54:55.255Z,2.99
2023-04-04T08:57:23.436Z,2.91
2023-04-04T08:59:52.030Z,2.85
2023-04-04T09:02:27.665Z,3.07
2023-04-04T09:05:05.499Z,2.88
2023-04-04T09:07:38.625Z,2.87
2023-04-04T09:10:10.072Z,2.83
2023-04-04T09:12:39.175Z,2.82
2023-04-04T09:15:08.000Z,2.71
2023-04-04T09:17:37.633Z,2.82
2023-04-04T09:20:26.336Z,2.75
2023-04-04T09:22:56.218Z,2.75
2023-04-04T09:25:24.937Z,2.51
2023-04-04T09:27:54.688Z,2.55
2023-04-04T09:30:22.896Z,2.64
2023-04-04T09:32:51.358Z,2.56
2023-04-04T09:35:21.773Z,2.66
2023-04-04T09:37:51.037Z,2.74
2023-04-04T09:40:23.974Z,2.83
2023-04-04T09:42:54.340Z,2.68
2023-04-04T09:45:32.253Z,2.70
2023-04-04T09:48:01.548Z,2.80
2023-04-04T09:50:30.553Z,2.90
2023-04-04T09:53:00.526Z,2.85
2023-04-04T09:55:37.922Z,2.74
2023-04-04T09:58:14.661Z,2.85
2023-04-04T10:00:45.186Z,2.82
2023-04-04T10:03:15.895Z,2.75
2023-04-04T10:05:46.293Z,2.89
2023-04-04T10:08:18.804Z,2.71
2023-04-04T10:11:02.686Z,2.95
2023-04-04T10:13:37.169Z,2.89
2023-04-04T10:16:06.303Z,3.08
2023-04-04T10:18:36.179Z,2.92
2023-04-04T10:23:38.725Z,2.98
2023-04-04T10:26:08.610Z,3.11
2023-04-04T10:28:37.418Z,2.91
2023-04-04T10:31:11.136Z,3.04
2023-04-04T10:33:46.260Z,3.03
2023-04-04T10:36:18.379Z,3.03
2023-04-04T10:38:55.688Z,3.10
2023-04-04T10:41:27.276Z,3.17
2023-04-04T10:43:57.852Z,3.07
2023-04-04T10:46:31.114Z,3.19
2023-04-04T10:49:01.473Z,3.05
2023-04-04T10:51:35.368Z,3.07
2023-04-04T10:54:08.647Z,3.13
2023-04-04T10:56:38.649Z,3.37
2023-04-04T10:59:14.571Z,3.48
2023-04-04T11:01:58.173Z,3.30
2023-04-04T11:04:35.173Z,3.35
2023-04-04T11:07:19.209Z,3.36
2023-04-04T11:09:48.358Z,3.42
2023-04-04T11:12:23.593Z,3.46
2023-04-04T11:15:11.165Z,3.54
2023-04-04T11:17:53.122Z,3.45
2023-04-04T11:20:23.850Z,3.45
2023-04-04T11:22:52.796Z,3.50
2023-04-04T11:25:31.293Z,3.40
2023-04-04T11:28:05.940Z,3.55
2023-04-04T11:30:44.218Z,3.43
2023-04-04T11:33:14.156Z,3.35
2023-04-04T11:35:47.847Z,3.41
2023-04-04T11:38:17.868Z,3.45
2023-04-04T11:40:56.550Z,3.44
2023-04-04T11:43:28.844Z,3.39
2023-04-04T11:46:09.017Z,3.38
2023-04-04T11:48:37.457Z,3.21
2023-04-04T11:51:06.215Z,3.31
2023-04-04T11:53:34.678Z,3.21
2023-04-04T11:56:02.837Z,3.51
2023-04-04T11:58:37.328Z,3.46
2023-04-04T12:01:06.989Z,3.28
2023-04-04T12:03:37.027Z,3.17
2023-04-04T12:06:05.379Z,3.45
2023-04-04T12:08:34.338Z,3.26
2023-04-04T12:11:06.769Z,3.29
2023-04-04T12:13:36.688Z,3.36
2023-04-04T12:16:05.295Z,3.44
2023-04-04T12:18:33.471Z,3.49
2023-04-04T12:21:02.782Z,3.45
2023-04-04T12:23:35.707Z,3.51
2023-04-04T12:26:06.068Z,3.35
2023-04-04T12:28:38.408Z,3.61
2023-04-04T12:31:08.167Z,3.77
2023-04-04T12:33:38.002Z,3.75
2023-04-04T12:36:07.099Z,3.83
2023-04-04T12:38:35.808Z,3.79
2023-04-04T12:41:04.933Z,3.52
2023-04-04T12:43:34.015Z,3.70
2023-04-04T12:46:04.045Z,3.48
2023-04-04T12:48:34.481Z,3.58
2023-04-04T12:51:02.729Z,3.53
2023-04-04T12:53:33.204Z,3.42
2023-04-04T12:56:03.830Z,3.49
2023-04-04T12:58:35.954Z,3.51
2023-04-04T13:01:07.309Z,3.58
2023-04-04T13:03:38.260Z,3.53
2023-04-04T13:06:13.388Z,3.64
2023-04-04T13:08:52.075Z,3.73
2023-04-04T13:11:21.027Z,3.80
2023-04-04T13:13:49.475Z,3.87
2023-04-04T13:16:32.807Z,3.66
2023-04-04T13:19:01.178Z,3.68
2023-04-04T13:21:29.585Z,3.50
2023-04-04T13:23:57.819Z,3.83
2023-04-04T13:26:26.383Z,3.76
2023-04-04T13:28:54.635Z,3.70
2023-04-04T13:31:23.535Z,3.51
2023-04-04T13:33:53.125Z,3.74
2023-04-04T13:36:21.304Z,3.79
2023-04-04T13:38:49.437Z,3.62
2023-04-04T13:41:17.753Z,3.70
2023-04-04T13:43:46.011Z,3.82
2023-04-04T13:46:14.101Z,3.77
2023-04-04T13:48:42.424Z,3.92
2023-04-04T13:51:12.255Z,3.72
2023-04-04T13:53:41.641Z,3.84
2023-04-04T13:58:41.233Z,3.62
2023-04-04T14:01:09.449Z,3.67
2023-04-04T14:03:38.313Z,3.57
2023-04-04T14:06:10.929Z,3.64
2023-04-04T14:08:41.109Z,3.52
2023-04-04T14:11:09.403Z,3.48
2023-04-04T14:13:38.802Z,3.62
2023-04-04T14:16:08.685Z,3.71
2023-04-04T14:18:37.064Z,3.70
2023-04-04T14:21:07.584Z,3.68
2023-04-04T14:23:35.809Z,3.65
2023-04-04T14:26:05.462Z,3.59
2023-04-04T14:28:33.857Z,3.86
2023-04-04T14:31:01.990Z,3.96
2023-04-04T14:33:30.265Z,3.86
2023-04-04T14:35:58.499Z,3.49
2023-04-04T14:38:26.575Z,3.59
2023-04-04T14:40:54.870Z,3.85
2023-04-04T14:43:24.682Z,3.61
2023-04-04T14:45:52.849Z,3.41
2023-04-04T14:48:21.024Z,3.54
2023-04-04T14:50:49.009Z,3.66
2023-04-04T14:53:19.004Z,3.65
2023-04-04T14:55:47.043Z,3.66
2023-04-04T14:58:18.174Z,3.75
2023-04-04T15:00:48.323Z,3.71
2023-04-04T15:03:17.016Z,3.66
2023-04-04T15:05:45.157Z,3.76
2023-04-04T15:08:13.424Z,3.74
2023-04-04T15:10:42.180Z,3.66
2023-04-04T15:13:11.236Z,3.58
2023-04-04T15:15:39.590Z,3.30
2023-04-04T15:18:09.266Z,3.54
2023-04-04T15:20:40.237Z,3.62
2023-04-04T15:23:08.687Z,3.80
2023-04-04T15:25:36.973Z,3.56
2023-04-04T15:28:04.961Z,3.65
2023-04-04T15:30:33.446Z,3.81
2023-04-04T15:33:01.632Z,3.50
2023-04-04T15:35:31.078Z,3.59
2023-04-04T15:37:59.380Z,3.66
2023-04-04T15:40:27.471Z,3.16
2023-04-04T15:42:57.531Z,3.53
2023-04-04T15:45:25.889Z,3.59
2023-04-04T15:47:54.218Z,3.59
2023-04-04T15:50:22.374Z,3.65
2023-04-04T15:52:52.156Z,3.70
2023-04-04T15:55:21.645Z,3.56
2023-04-04T15:57:50.423Z,3.46
2023-04-04T16:00:18.702Z,3.63
2023-04-04T16:02:46.993Z,3.58
2023-04-04T16:05:15.625Z,3.52
2023-04-04T16:07:43.822Z,3.82
2023-04-04T16:10:14.048Z,3.61
2023-04-04T16:12:42.207Z,3.69
2023-04-04T16:15:12.004Z,3.72
2023-04-04T16:17:40.112Z,3.77
2023-04-04T16:20:09.829Z,3.79
2023-04-04T16:22:37.787Z,3.71
2023-04-04T16:25:08.668Z,3.65
2023-04-04T16:27:38.159Z,3.75
2023-04-04T16:30:07.460Z,3.78
2023-04-04T16:32:35.646Z,3.59
2023-04-04T16:35:03.741Z,3.89
2023-04-04T16:37:31.881Z,3.69
2023-04-04T16:40:01.322Z,3.83
2023-04-04T16:42:29.495Z,3.79
2023-04-04T16:44:59.014Z,3.99
2023-04-04T16:47:28.290Z,4.08
2023-04-04T16:49:56.902Z,4.16
2023-04-04T16:52:24.921Z,4.06
2023-04-04T16:54:54.480Z,4.22
2023-04-04T16:57:22.626Z,4.11
2023-04-04T16:59:50.769Z,3.84
2023-04-04T17:02:20.302Z,4.09
2023-04-04T17:04:48.694Z,4.25
2023-04-04T17:07:17.070Z,4.29
2023-04-04T17:09:47.066Z,3.89
2023-04-04T17:12:16.542Z,3.97
2023-04-04T17:14:45.411Z,3.76
2023-04-04T17:17:13.833Z,4.00
2023-04-04T17:19:43.599Z,3.78
2023-04-04T17:22:12.120Z,3.87
2023-04-04T17:24:40.768Z,3.88
2023-04-04T17:27:08.948Z,3.80
2023-04-04T17:29:37.016Z,3.76
2023-04-04T17:32:05.674Z,3.73
2023-04-04T17:34:33.947Z,3.63
2023-04-04T17:37:03.669Z,3.64
2023-04-04T17:39:31.964Z,3.76
2023-04-04T17:42:00.045Z,3.66
2023-04-04T17:44:28.501Z,3.71
2023-04-04T17:46:56.609Z,3.78
2023-04-04T17:49:24.793Z,3.73
2023-04-04T17:51:53.614Z,3.68
2023-04-04T17:54:26.398Z,3.63
2023-04-04T17:56:55.024Z,3.79
2023-04-04T17:59:24.410Z,3.75
2023-04-04T18:01:52.952Z,3.76
2023-04-04T18:04:22.382Z,3.47
2023-04-04T18:06:50.487Z,3.55
2023-04-04T18:09:19.154Z,3.66
2023-04-04T18:11:48.745Z,3.58
2023-04-04T18:14:17.023Z,3.70
2023-04-04T18:16:45.312Z,3.79
2023-04-04T18:19:13.422Z,3.87
2023-04-04T18:21:41.839Z,3.79
2023-04-04T18:24:11.976Z,3.90
2023-04-04T18:26:40.191Z,3.96
2023-04-04T18:29:09.712Z,3.92
2023-04-04T18:31:37.950Z,3.96
2023-04-04T18:34:06.244Z,3.89
2023-04-04T18:36:36.421Z,4.09
2023-04-04T18:39:04.740Z,4.31
2023-04-04T18:41:33.849Z,4.44
2023-04-04T18:44:02.059Z,4.35
2023-04-04T18:46:32.312Z,4.60
2023-04-04T18:49:00.857Z,4.52
2023-04-04T18:51:29.258Z,4.48
2023-04-04T18:53:57.352Z,4.34
2023-04-04T18:56:26.210Z,4.32
2023-04-04T18:58:54.183Z,4.32
2023-04-04T19:01:22.578Z,4.06
2023-04-04T19:03:54.151Z,3.94
2023-04-04T19:06:26.155Z,3.81
2023-04-04T19:08:56.828Z,3.86
2023-04-04T19:11:25.442Z,3.86
2023-04-04T19:13:53.904Z,3.85
2023-04-04T19:16:22.656Z,3.85
2023-04-04T19:18:52.297Z,3.80
2023-04-04T19:21:20.713Z,3.92
2023-04-04T19:23:48.791Z,3.48
2023-04-04T19:26:18.228Z,3.85
2023-04-04T19:28:47.185Z,4.02
2023-04-04T19:31:21.756Z,3.76
2023-04-04T19:33:55.288Z,4.05
2023-04-04T19:36:24.849Z,4.20
2023-04-04T19:38:55.225Z,4.28
2023-04-04T19:41:35.194Z,4.01
2023-04-04T19:44:03.657Z,4.15
2023-04-04T19:46:33.543Z,3.98
2023-04-04T19:49:03.842Z,4.21
2023-04-04T19:51:39.452Z,4.17
2023-04-04T19:54:12.332Z,4.17
2023-04-04T19:56:40.853Z,4.26
2023-04-04T19:59:10.939Z,4.30
2023-04-04T20:01:50.268Z,4.33
2023-04-04T20:04:27.747Z,4.24
2023-04-04T20:06:55.966Z,4.42
2023-04-04T20:09:34.867Z,4.51
2023-04-04T20:12:03.150Z,4.51
2023-04-04T20:14:31.463Z,4.30
2023-04-04T20:16:59.732Z,4.48
2023-04-04T20:19:29.903Z,4.29
2023-04-04T20:21:58.295Z,4.35
2023-04-04T20:24:26.830Z,4.39
2023-04-04T20:26:58.529Z,4.37
2023-04-04T20:29:28.287Z,4.37
2023-04-04T20:31:57.714Z,4.20
2023-04-04T20:34:43.979Z,4.10
2023-04-04T20:37:14.646Z,4.07
2023-04-04T20:39:48.213Z,4.12
2023-04-04T20:42:32.260Z,4.16
2023-04-04T20:45:02.036Z,4.16
2023-04-04T20:47:32.123Z,4.25
2023-04-04T20:50:01.654Z,4.17
2023-04-04T20:52:29.752Z,4.23
2023-04-04T20:54:57.940Z,4.48
2023-04-04T20:57:26.408Z,4.31
2023-04-04T20:59:54.793Z,4.37
2023-04-04T21:02:23.701Z,4.35
2023-04-04T21:04:52.508Z,4.27
2023-04-04T21:07:41.482Z,4.58
2023-04-04T21:10:25.064Z,4.65
2023-04-04T21:12:53.630Z,4.71
2023-04-04T21:15:38.574Z,4.77
2023-04-04T21:18:09.999Z,4.81
2023-04-04T21:21:07.954Z,4.77
2023-04-04T21:23:47.419Z,4.94
2023-04-04T21:26:27.744Z,5.01
2023-04-04T21:28:56.972Z,5.01
2023-04-04T21:31:27.605Z,5.10
2023-04-04T21:33:58.343Z,5.11
2023-04-04T21:36:30.093Z,5.06
2023-04-04T21:39:01.719Z,5.11
2023-04-04T21:41:31.515Z,5.10
2023-04-04T21:44:01.178Z,4.62
2023-04-04T21:46:34.726Z,4.54
2023-04-04T21:49:03.731Z,4.61
2023-04-04T21:51:31.890Z,4.79
2023-04-04T21:54:02.718Z,4.90
2023-04-04T21:56:33.131Z,4.94
2023-04-04T21:59:02.661Z,4.91
2023-04-04T22:01:31.685Z,5.18
2023-04-04T22:04:00.153Z,5.21
2023-04-04T22:06:28.767Z,5.24
2023-04-04T22:08:58.398Z,5.32
2023-04-04T22:11:28.968Z,5.23
2023-04-04T22:14:04.151Z,4.94
2023-04-04T22:16:37.141Z,4.70
2023-04-04T22:19:05.860Z,4.87
2023-04-04T22:21:37.010Z,4.96
2023-04-04T22:24:06.554Z,4.73
2023-04-04T22:26:37.195Z,4.87
2023-04-04T22:29:09.060Z,4.96
2023-04-04T22:31:37.937Z,4.82
2023-04-04T22:34:06.629Z,4.83
2023-04-04T22:36:35.676Z,5.00
2023-04-04T22:39:03.851Z,4.90
2023-04-04T22:41:32.291Z,4.87
2023-04-04T22:44:01.925Z,5.02
2023-04-04T22:46:31.618Z,5.03
2023-04-04T22:49:06.724Z,5.17
2023-04-04T22:51:45.792Z,5.21
2023-04-04T22:54:15.429Z,5.19
2023-04-04T22:56:43.721Z,5.11
2023-04-04T22:59:13.690Z,5.22
2023-04-04T23:01:42.324Z,5.28
2023-04-04T23:04:11.021Z,5.22
2023-04-04T23:06:39.697Z,5.36
2023-04-04T23:09:08.982Z,5.30
2023-04-04T23:11:38.276Z,5.36
2023-04-04T23:14:09.579Z,5.31
2023-04-04T23:16:40.271Z,5.38
2023-04-04T23:19:08.378Z,5.44
2023-04-04T23:21:38.142Z,5.46
2023-04-04T23:24:07.380Z,5.49
2023-04-04T23:26:35.769Z,5.50
2023-04-04T23:29:03.989Z,5.52
2023-04-04T23:31:31.961Z,5.58
2023-04-04T23:34:02.180Z,5.58
2023-04-04T23:36:31.176Z,5.58
2023-04-04T23:38:59.433Z,5.51
2023-04-04T23:41:27.522Z,5.38
2023-04-04T23:43:55.531Z,5.56
2023-04-04T23:46:24.073Z,5.50
2023-04-04T23:48:52.519Z,5.53
2023-04-04T23:51:22.358Z,5.53
2023-04-04T23:53:50.510Z,5.52
2023-04-04T23:56:18.607Z,5.44
2023-04-04T23:58:47.003Z,5.59
